sensor_id;sensor_type;location;lat;lon;timestamp;P1;durP1;ratioP1;P2;durP2;ratioP2
71655;SDS011;59497;48.798;8.816;2024-02-14T00:02:15;10.37;;;6.10;;
71655;SDS011;59497;48.798;8.816;2024-02-14T00:04:40;9.23;;;5.43;;
71655;SDS011;59497;48.798;8.816;2024-02-14T00:07:05;8.67;;;4.60;;
71655;SDS011;59497;48.798;8.816;2024-02-14T00:09:31;7.10;;;4.40;;
71655;SDS011;59497;48.798;8.816;2024-02-14T00:11:56;7.83;;;4.40;;
71655;SDS011;59497;48.798;8.816;2024-02-14T00:14:21;8.90;;;4.60;;
71655;SDS011;59497;48.798;8.816;2024-02-14T00:16:46;7.23;;;4.57;;
71655;SDS011;59497;48.798;8.816;2024-02-14T00:19:11;10.47;;;4.97;;
71655;SDS011;59497;48.798;8.816;2024-02-14T00:21:37;9.03;;;4.70;;
71655;SDS011;59497;48.798;8.816;2024-02-14T00:24:03;11.15;;;4.43;;
71655;SDS011;59497;48.798;8.816;2024-02-14T00:26:29;10.68;;;5.07;;
71655;SDS011;59497;48.798;8.816;2024-02-14T00:28:54;9.13;;;5.70;;
71655;SDS011;59497;48.798;8.816;2024-02-14T00:31:20;9.80;;;5.10;;
71655;SDS011;59497;48.798;8.816;2024-02-14T00:33:45;6.90;;;4.40;;
71655;SDS011;59497;48.798;8.816;2024-02-14T00:36:11;8.88;;;4.50;;
71655;SDS011;59497;48.798;8.816;2024-02-14T00:38:36;12.90;;;4.97;;
71655;SDS011;59497;48.798;8.816;2024-02-14T00:41:01;6.93;;;4.50;;
71655;SDS011;59497;48.798;8.816;2024-02-14T00:43:27;7.67;;;4.60;;
71655;SDS011;59497;48.798;8.816;2024-02-14T00:45:52;7.30;;;3.83;;
71655;SDS011;59497;48.798;8.816;2024-02-14T00:48:17;6.73;;;3.80;;
71655;SDS011;59497;48.798;8.816;2024-02-14T00:50:42;4.67;;;3.53;;
71655;SDS011;59497;48.798;8.816;2024-02-14T00:53:08;6.00;;;4.10;;
71655;SDS011;59497;48.798;8.816;2024-02-14T00:55:33;8.57;;;4.70;;
71655;SDS011;59497;48.798;8.816;2024-02-14T00:57:58;8.63;;;4.60;;
71655;SDS011;59497;48.798;8.816;2024-02-14T01:00:24;8.27;;;4.50;;
71655;SDS011;59497;48.798;8.816;2024-02-14T01:02:49;7.38;;;4.10;;
71655;SDS011;59497;48.798;8.816;2024-02-14T01:05:14;7.57;;;4.10;;
71655;SDS011;59497;48.798;8.816;2024-02-14T01:07:39;7.93;;;3.80;;
71655;SDS011;59497;48.798;8.816;2024-02-14T01:10:05;5.40;;;3.50;;
71655;SDS011;59497;48.798;8.816;2024-02-14T01:12:30;7.50;;;3.87;;
71655;SDS011;59497;48.798;8.816;2024-02-14T01:14:55;7.23;;;3.93;;
71655;SDS011;59497;48.798;8.816;2024-02-14T01:17:20;6.77;;;3.43;;
71655;SDS011;59497;48.798;8.816;2024-02-14T01:19:45;9.03;;;3.80;;
71655;SDS011;59497;48.798;8.816;2024-02-14T01:22:11;5.43;;;3.10;;
71655;SDS011;59497;48.798;8.816;2024-02-14T01:24:36;7.27;;;3.60;;
71655;SDS011;59497;48.798;8.816;2024-02-14T01:27:01;6.60;;;3.30;;
71655;SDS011;59497;48.798;8.816;2024-02-14T01:29:27;7.32;;;3.38;;
71655;SDS011;59497;48.798;8.816;2024-02-14T01:31:53;6.40;;;3.23;;
71655;SDS011;59497;48.798;8.816;2024-02-14T01:34:18;5.83;;;3.70;;
71655;SDS011;59497;48.798;8.816;2024-02-14T01:36:43;4.90;;;3.47;;
71655;SDS011;59497;48.798;8.816;2024-02-14T01:39:08;6.77;;;2.90;;
71655;SDS011;59497;48.798;8.816;2024-02-14T01:41:36;7.80;;;3.00;;
71655;SDS011;59497;48.798;8.816;2024-02-14T01:44:02;5.33;;;2.40;;
71655;SDS011;59497;48.798;8.816;2024-02-14T01:46:27;4.97;;;2.27;;
71655;SDS011;59497;48.798;8.816;2024-02-14T01:48:52;5.75;;;2.67;;
71655;SDS011;59497;48.798;8.816;2024-02-14T01:51:17;4.20;;;2.37;;
71655;SDS011;59497;48.798;8.816;2024-02-14T01:53:44;5.83;;;2.53;;
71655;SDS011;59497;48.798;8.816;2024-02-14T01:56:10;4.63;;;2.58;;
71655;SDS011;59497;48.798;8.816;2024-02-14T01:58:35;6.57;;;2.50;;
71655;SDS011;59497;48.798;8.816;2024-02-14T02:01:01;4.85;;;2.50;;
71655;SDS011;59497;48.798;8.816;2024-02-14T02:03:28;5.70;;;2.40;;
71655;SDS011;59497;48.798;8.816;2024-02-14T02:05:53;4.95;;;2.50;;
71655;SDS011;59497;48.798;8.816;2024-02-14T02:08:19;5.83;;;2.43;;
71655;SDS011;59497;48.798;8.816;2024-02-14T02:10:44;5.17;;;2.27;;
71655;SDS011;59497;48.798;8.816;2024-02-14T02:13:09;4.13;;;2.40;;
71655;SDS011;59497;48.798;8.816;2024-02-14T02:15:35;6.80;;;3.10;;
71655;SDS011;59497;48.798;8.816;2024-02-14T02:18:00;5.43;;;2.40;;
71655;SDS011;59497;48.798;8.816;2024-02-14T02:20:27;4.22;;;2.25;;
71655;SDS011;59497;48.798;8.816;2024-02-14T02:22:53;5.60;;;2.87;;
71655;SDS011;59497;48.798;8.816;2024-02-14T02:25:18;6.23;;;2.60;;
71655;SDS011;59497;48.798;8.816;2024-02-14T02:27:48;4.53;;;2.50;;
71655;SDS011;59497;48.798;8.816;2024-02-14T02:30:13;6.07;;;2.53;;
71655;SDS011;59497;48.798;8.816;2024-02-14T02:32:38;4.10;;;2.60;;
71655;SDS011;59497;48.798;8.816;2024-02-14T02:35:04;7.73;;;3.27;;
71655;SDS011;59497;48.798;8.816;2024-02-14T02:37:29;5.18;;;2.90;;
71655;SDS011;59497;48.798;8.816;2024-02-14T02:39:55;6.03;;;2.83;;
71655;SDS011;59497;48.798;8.816;2024-02-14T02:42:21;5.13;;;3.00;;
71655;SDS011;59497;48.798;8.816;2024-02-14T02:44:46;5.30;;;3.13;;
71655;SDS011;59497;48.798;8.816;2024-02-14T02:47:13;5.38;;;3.20;;
71655;SDS011;59497;48.798;8.816;2024-02-14T02:49:42;4.50;;;2.80;;
71655;SDS011;59497;48.798;8.816;2024-02-14T02:52:09;6.00;;;2.90;;
71655;SDS011;59497;48.798;8.816;2024-02-14T02:54:34;4.30;;;2.43;;
71655;SDS011;59497;48.798;8.816;2024-02-14T02:57:00;5.70;;;3.00;;
71655;SDS011;59497;48.798;8.816;2024-02-14T02:59:28;8.15;;;3.72;;
71655;SDS011;59497;48.798;8.816;2024-02-14T03:01:54;5.27;;;3.10;;
71655;SDS011;59497;48.798;8.816;2024-02-14T03:04:20;7.83;;;3.37;;
71655;SDS011;59497;48.798;8.816;2024-02-14T03:06:45;6.45;;;3.03;;
71655;SDS011;59497;48.798;8.816;2024-02-14T03:09:10;5.40;;;3.23;;
71655;SDS011;59497;48.798;8.816;2024-02-14T03:11:37;8.20;;;2.80;;
71655;SDS011;59497;48.798;8.816;2024-02-14T03:14:03;6.90;;;3.60;;
71655;SDS011;59497;48.798;8.816;2024-02-14T03:16:28;5.80;;;2.63;;
71655;SDS011;59497;48.798;8.816;2024-02-14T03:18:54;5.32;;;2.63;;
71655;SDS011;59497;48.798;8.816;2024-02-14T03:21:19;4.63;;;2.90;;
71655;SDS011;59497;48.798;8.816;2024-02-14T03:23:44;6.00;;;2.83;;
71655;SDS011;59497;48.798;8.816;2024-02-14T03:26:11;8.25;;;4.05;;
71655;SDS011;59497;48.798;8.816;2024-02-14T03:28:36;6.10;;;2.40;;
71655;SDS011;59497;48.798;8.816;2024-02-14T03:31:01;5.00;;;2.37;;
71655;SDS011;59497;48.798;8.816;2024-02-14T03:33:26;4.00;;;2.47;;
71655;SDS011;59497;48.798;8.816;2024-02-14T03:35:53;5.65;;;2.28;;
71655;SDS011;59497;48.798;8.816;2024-02-14T03:38:28;5.40;;;2.53;;
71655;SDS011;59497;48.798;8.816;2024-02-14T03:40:54;4.82;;;2.65;;
71655;SDS011;59497;48.798;8.816;2024-02-14T03:43:19;4.57;;;2.00;;
71655;SDS011;59497;48.798;8.816;2024-02-14T03:45:44;5.27;;;2.10;;
71655;SDS011;59497;48.798;8.816;2024-02-14T03:48:11;4.07;;;2.17;;
71655;SDS011;59497;48.798;8.816;2024-02-14T03:50:38;3.80;;;1.73;;
71655;SDS011;59497;48.798;8.816;2024-02-14T03:53:03;4.20;;;1.77;;
71655;SDS011;59497;48.798;8.816;2024-02-14T03:55:28;5.60;;;1.90;;
71655;SDS011;59497;48.798;8.816;2024-02-14T03:57:55;5.63;;;2.17;;
71655;SDS011;59497;48.798;8.816;2024-02-14T04:00:20;4.60;;;2.00;;
71655;SDS011;59497;48.798;8.816;2024-02-14T04:02:47;5.70;;;2.20;;
71655;SDS011;59497;48.798;8.816;2024-02-14T04:05:13;4.03;;;1.95;;
71655;SDS011;59497;48.798;8.816;2024-02-14T04:07:39;3.60;;;1.90;;
71655;SDS011;59497;48.798;8.816;2024-02-14T04:10:04;5.87;;;2.37;;
71655;SDS011;59497;48.798;8.816;2024-02-14T04:12:29;4.07;;;2.60;;
71655;SDS011;59497;48.798;8.816;2024-02-14T04:14:55;4.15;;;2.60;;
71655;SDS011;59497;48.798;8.816;2024-02-14T04:17:21;3.63;;;2.00;;
71655;SDS011;59497;48.798;8.816;2024-02-14T04:19:46;3.83;;;1.93;;
71655;SDS011;59497;48.798;8.816;2024-02-14T04:22:11;4.47;;;2.13;;
71655;SDS011;59497;48.798;8.816;2024-02-14T04:24:36;3.47;;;1.90;;
71655;SDS011;59497;48.798;8.816;2024-02-14T04:27:01;4.23;;;1.80;;
71655;SDS011;59497;48.798;8.816;2024-02-14T04:29:29;6.30;;;2.13;;
71655;SDS011;59497;48.798;8.816;2024-02-14T04:31:55;5.10;;;2.33;;
71655;SDS011;59497;48.798;8.816;2024-02-14T04:34:20;5.33;;;2.07;;
71655;SDS011;59497;48.798;8.816;2024-02-14T04:36:46;3.47;;;1.83;;
71655;SDS011;59497;48.798;8.816;2024-02-14T04:39:11;4.17;;;1.60;;
71655;SDS011;59497;48.798;8.816;2024-02-14T04:41:36;3.27;;;1.80;;
71655;SDS011;59497;48.798;8.816;2024-02-14T04:44:04;2.20;;;1.03;;
71655;SDS011;59497;48.798;8.816;2024-02-14T04:46:31;4.07;;;1.98;;
71655;SDS011;59497;48.798;8.816;2024-02-14T04:48:56;5.47;;;2.13;;
71655;SDS011;59497;48.798;8.816;2024-02-14T04:51:22;5.23;;;1.90;;
71655;SDS011;59497;48.798;8.816;2024-02-14T04:53:47;5.07;;;1.93;;
71655;SDS011;59497;48.798;8.816;2024-02-14T04:56:12;3.80;;;2.17;;
71655;SDS011;59497;48.798;8.816;2024-02-14T04:58:37;4.40;;;1.97;;
71655;SDS011;59497;48.798;8.816;2024-02-14T05:01:02;5.00;;;2.03;;
71655;SDS011;59497;48.798;8.816;2024-02-14T05:03:28;4.77;;;1.80;;
71655;SDS011;59497;48.798;8.816;2024-02-14T05:05:53;4.80;;;1.40;;
71655;SDS011;59497;48.798;8.816;2024-02-14T05:08:18;3.70;;;1.70;;
71655;SDS011;59497;48.798;8.816;2024-02-14T05:10:43;4.07;;;1.97;;
71655;SDS011;59497;48.798;8.816;2024-02-14T05:13:08;3.47;;;2.00;;
71655;SDS011;59497;48.798;8.816;2024-02-14T05:15:34;4.80;;;2.30;;
71655;SDS011;59497;48.798;8.816;2024-02-14T05:18:00;7.75;;;2.28;;
71655;SDS011;59497;48.798;8.816;2024-02-14T05:20:25;3.77;;;2.30;;
71655;SDS011;59497;48.798;8.816;2024-02-14T05:22:50;3.50;;;1.90;;
71655;SDS011;59497;48.798;8.816;2024-02-14T05:25:16;6.00;;;2.20;;
71655;SDS011;59497;48.798;8.816;2024-02-14T05:27:41;2.90;;;1.73;;
71655;SDS011;59497;48.798;8.816;2024-02-14T05:30:06;5.37;;;2.30;;
71655;SDS011;59497;48.798;8.816;2024-02-14T05:32:32;3.83;;;2.10;;
71655;SDS011;59497;48.798;8.816;2024-02-14T05:34:58;3.33;;;1.80;;
71655;SDS011;59497;48.798;8.816;2024-02-14T05:37:23;5.60;;;2.17;;
71655;SDS011;59497;48.798;8.816;2024-02-14T05:39:48;4.97;;;2.17;;
71655;SDS011;59497;48.798;8.816;2024-02-14T05:42:13;4.10;;;1.93;;
71655;SDS011;59497;48.798;8.816;2024-02-14T05:44:41;3.40;;;2.00;;
71655;SDS011;59497;48.798;8.816;2024-02-14T05:47:06;3.80;;;2.07;;
71655;SDS011;59497;48.798;8.816;2024-02-14T05:49:31;5.30;;;2.13;;
71655;SDS011;59497;48.798;8.816;2024-02-14T05:51:56;4.43;;;2.37;;
71655;SDS011;59497;48.798;8.816;2024-02-14T05:54:21;4.50;;;2.17;;
71655;SDS011;59497;48.798;8.816;2024-02-14T05:56:47;3.53;;;1.80;;
71655;SDS011;59497;48.798;8.816;2024-02-14T05:59:12;5.17;;;1.97;;
71655;SDS011;59497;48.798;8.816;2024-02-14T06:01:37;3.33;;;1.93;;
71655;SDS011;59497;48.798;8.816;2024-02-14T06:04:02;5.07;;;2.63;;
71655;SDS011;59497;48.798;8.816;2024-02-14T06:06:27;4.13;;;1.97;;
71655;SDS011;59497;48.798;8.816;2024-02-14T06:08:53;3.33;;;1.93;;
71655;SDS011;59497;48.798;8.816;2024-02-14T06:11:18;7.17;;;2.70;;
71655;SDS011;59497;48.798;8.816;2024-02-14T06:13:46;6.97;;;2.22;;
71655;SDS011;59497;48.798;8.816;2024-02-14T06:16:11;3.20;;;1.60;;
71655;SDS011;59497;48.798;8.816;2024-02-14T06:18:37;4.00;;;2.77;;
71655;SDS011;59497;48.798;8.816;2024-02-14T06:21:02;5.93;;;2.33;;
71655;SDS011;59497;48.798;8.816;2024-02-14T06:23:27;5.93;;;1.90;;
71655;SDS011;59497;48.798;8.816;2024-02-14T06:25:53;4.75;;;2.20;;
71655;SDS011;59497;48.798;8.816;2024-02-14T06:28:18;4.27;;;2.07;;
71655;SDS011;59497;48.798;8.816;2024-02-14T06:30:43;5.13;;;2.33;;
71655;SDS011;59497;48.798;8.816;2024-02-14T06:33:08;4.87;;;2.80;;
71655;SDS011;59497;48.798;8.816;2024-02-14T06:35:34;3.87;;;2.13;;
71655;SDS011;59497;48.798;8.816;2024-02-14T06:37:59;4.70;;;2.40;;
71655;SDS011;59497;48.798;8.816;2024-02-14T06:40:25;5.43;;;1.77;;
71655;SDS011;59497;48.798;8.816;2024-02-14T06:42:51;4.47;;;1.80;;
71655;SDS011;59497;48.798;8.816;2024-02-14T06:45:17;5.13;;;2.03;;
71655;SDS011;59497;48.798;8.816;2024-02-14T06:47:42;5.73;;;2.03;;
71655;SDS011;59497;48.798;8.816;2024-02-14T06:50:09;4.03;;;1.60;;
71655;SDS011;59497;48.798;8.816;2024-02-14T06:52:34;3.43;;;1.80;;
71655;SDS011;59497;48.798;8.816;2024-02-14T06:54:59;4.73;;;1.73;;
71655;SDS011;59497;48.798;8.816;2024-02-14T06:57:25;2.70;;;1.27;;
71655;SDS011;59497;48.798;8.816;2024-02-14T06:59:50;3.38;;;1.52;;
71655;SDS011;59497;48.798;8.816;2024-02-14T07:02:15;2.37;;;1.43;;
71655;SDS011;59497;48.798;8.816;2024-02-14T07:04:41;4.77;;;2.00;;
71655;SDS011;59497;48.798;8.816;2024-02-14T07:07:06;3.37;;;1.83;;
71655;SDS011;59497;48.798;8.816;2024-02-14T07:09:32;4.70;;;1.65;;
71655;SDS011;59497;48.798;8.816;2024-02-14T07:12:00;5.22;;;1.48;;
71655;SDS011;59497;48.798;8.816;2024-02-14T07:14:25;3.83;;;1.33;;
71655;SDS011;59497;48.798;8.816;2024-02-14T07:16:50;1.83;;;0.90;;
71655;SDS011;59497;48.798;8.816;2024-02-14T07:19:16;2.43;;;1.10;;
71655;SDS011;59497;48.798;8.816;2024-02-14T07:21:41;3.40;;;1.20;;
71655;SDS011;59497;48.798;8.816;2024-02-14T07:24:06;3.73;;;1.77;;
71655;SDS011;59497;48.798;8.816;2024-02-14T07:26:31;2.27;;;1.00;;
71655;SDS011;59497;48.798;8.816;2024-02-14T07:28:57;2.80;;;1.30;;
71655;SDS011;59497;48.798;8.816;2024-02-14T07:31:22;2.60;;;1.30;;
71655;SDS011;59497;48.798;8.816;2024-02-14T07:33:47;3.03;;;1.30;;
71655;SDS011;59497;48.798;8.816;2024-02-14T07:36:13;3.23;;;1.17;;
71655;SDS011;59497;48.798;8.816;2024-02-14T07:38:38;3.53;;;1.30;;
71655;SDS011;59497;48.798;8.816;2024-02-14T07:41:04;5.00;;;1.55;;
71655;SDS011;59497;48.798;8.816;2024-02-14T07:43:29;2.27;;;1.23;;
71655;SDS011;59497;48.798;8.816;2024-02-14T07:45:54;3.43;;;1.50;;
71655;SDS011;59497;48.798;8.816;2024-02-14T07:48:19;3.03;;;1.57;;
71655;SDS011;59497;48.798;8.816;2024-02-14T07:50:45;5.00;;;1.75;;
71655;SDS011;59497;48.798;8.816;2024-02-14T07:53:10;4.60;;;1.60;;
71655;SDS011;59497;48.798;8.816;2024-02-14T07:55:35;4.17;;;1.50;;
71655;SDS011;59497;48.798;8.816;2024-02-14T07:58:01;2.63;;;1.40;;
71655;SDS011;59497;48.798;8.816;2024-02-14T08:00:26;4.50;;;2.67;;
71655;SDS011;59497;48.798;8.816;2024-02-14T08:02:51;2.57;;;1.30;;
71655;SDS011;59497;48.798;8.816;2024-02-14T08:05:17;2.50;;;1.20;;
71655;SDS011;59497;48.798;8.816;2024-02-14T08:07:44;1.98;;;1.33;;
71655;SDS011;59497;48.798;8.816;2024-02-14T08:10:09;2.53;;;1.30;;
71655;SDS011;59497;48.798;8.816;2024-02-14T08:12:34;3.50;;;1.13;;
71655;SDS011;59497;48.798;8.816;2024-02-14T08:14:59;2.90;;;1.43;;
71655;SDS011;59497;48.798;8.816;2024-02-14T08:17:29;2.33;;;1.60;;
71655;SDS011;59497;48.798;8.816;2024-02-14T08:19:54;3.50;;;1.70;;
71655;SDS011;59497;48.798;8.816;2024-02-14T08:22:19;4.70;;;1.87;;
71655;SDS011;59497;48.798;8.816;2024-02-14T08:24:45;4.10;;;1.70;;
71655;SDS011;59497;48.798;8.816;2024-02-14T08:27:11;5.13;;;2.73;;
71655;SDS011;59497;48.798;8.816;2024-02-14T08:29:36;6.13;;;2.10;;
71655;SDS011;59497;48.798;8.816;2024-02-14T08:32:01;5.10;;;1.47;;
71655;SDS011;59497;48.798;8.816;2024-02-14T08:34:26;6.80;;;1.87;;
71655;SDS011;59497;48.798;8.816;2024-02-14T08:36:52;3.72;;;1.70;;
71655;SDS011;59497;48.798;8.816;2024-02-14T08:39:18;3.93;;;1.93;;
71655;SDS011;59497;48.798;8.816;2024-02-14T08:41:43;3.53;;;2.17;;
71655;SDS011;59497;48.798;8.816;2024-02-14T08:44:09;3.78;;;1.75;;
71655;SDS011;59497;48.798;8.816;2024-02-14T08:46:35;2.67;;;2.08;;
71655;SDS011;59497;48.798;8.816;2024-02-14T08:49:00;3.00;;;1.80;;
71655;SDS011;59497;48.798;8.816;2024-02-14T08:51:27;2.97;;;1.70;;
71655;SDS011;59497;48.798;8.816;2024-02-14T08:53:52;3.87;;;1.60;;
71655;SDS011;59497;48.798;8.816;2024-02-14T08:56:24;10.23;;;2.47;;
71655;SDS011;59497;48.798;8.816;2024-02-14T08:58:49;11.30;;;2.27;;
71655;SDS011;59497;48.798;8.816;2024-02-14T09:01:14;6.97;;;1.90;;
71655;SDS011;59497;48.798;8.816;2024-02-14T09:03:41;4.53;;;1.85;;
71655;SDS011;59497;48.798;8.816;2024-02-14T09:06:08;4.20;;;1.50;;
71655;SDS011;59497;48.798;8.816;2024-02-14T09:08:33;3.30;;;1.13;;
71655;SDS011;59497;48.798;8.816;2024-02-14T09:10:58;1.97;;;1.00;;
71655;SDS011;59497;48.798;8.816;2024-02-14T09:13:24;2.57;;;1.27;;
71655;SDS011;59497;48.798;8.816;2024-02-14T09:15:49;1.17;;;0.70;;
71655;SDS011;59497;48.798;8.816;2024-02-14T09:18:15;2.10;;;0.98;;
71655;SDS011;59497;48.798;8.816;2024-02-14T09:20:44;3.92;;;1.50;;
71655;SDS011;59497;48.798;8.816;2024-02-14T09:23:11;2.50;;;1.10;;
71655;SDS011;59497;48.798;8.816;2024-02-14T09:25:36;3.30;;;1.80;;
71655;SDS011;59497;48.798;8.816;2024-02-14T09:28:01;2.43;;;1.03;;
71655;SDS011;59497;48.798;8.816;2024-02-14T09:30:26;1.17;;;0.70;;
71655;SDS011;59497;48.798;8.816;2024-02-14T09:32:51;1.70;;;0.80;;
71655;SDS011;59497;48.798;8.816;2024-02-14T09:35:17;2.13;;;1.10;;
71655;SDS011;59497;48.798;8.816;2024-02-14T09:37:42;1.90;;;1.03;;
71655;SDS011;59497;48.798;8.816;2024-02-14T09:40:07;2.67;;;1.27;;
71655;SDS011;59497;48.798;8.816;2024-02-14T09:42:48;1.23;;;0.77;;
71655;SDS011;59497;48.798;8.816;2024-02-14T09:45:16;1.95;;;0.93;;
71655;SDS011;59497;48.798;8.816;2024-02-14T09:47:41;1.63;;;1.00;;
71655;SDS011;59497;48.798;8.816;2024-02-14T09:50:07;3.67;;;1.37;;
71655;SDS011;59497;48.798;8.816;2024-02-14T09:52:32;1.50;;;1.20;;
71655;SDS011;59497;48.798;8.816;2024-02-14T09:54:58;2.27;;;0.80;;
71655;SDS011;59497;48.798;8.816;2024-02-14T09:57:23;1.35;;;0.90;;
71655;SDS011;59497;48.798;8.816;2024-02-14T09:59:51;3.00;;;0.97;;
71655;SDS011;59497;48.798;8.816;2024-02-14T10:02:16;1.95;;;1.08;;
71655;SDS011;59497;48.798;8.816;2024-02-14T10:04:42;1.80;;;0.63;;
71655;SDS011;59497;48.798;8.816;2024-02-14T10:07:08;1.20;;;1.10;;
71655;SDS011;59497;48.798;8.816;2024-02-14T10:09:40;1.13;;;0.90;;
71655;SDS011;59497;48.798;8.816;2024-02-14T10:12:05;1.23;;;0.90;;
71655;SDS011;59497;48.798;8.816;2024-02-14T10:14:31;2.85;;;0.90;;
71655;SDS011;59497;48.798;8.816;2024-02-14T10:16:56;2.20;;;0.90;;
71655;SDS011;59497;48.798;8.816;2024-02-14T10:19:21;1.80;;;1.10;;
71655;SDS011;59497;48.798;8.816;2024-02-14T10:21:59;3.47;;;1.10;;
71655;SDS011;59497;48.798;8.816;2024-02-14T10:24:28;1.65;;;1.00;;
71655;SDS011;59497;48.798;8.816;2024-02-14T10:26:53;1.63;;;0.70;;
71655;SDS011;59497;48.798;8.816;2024-02-14T10:29:19;1.45;;;0.63;;
71655;SDS011;59497;48.798;8.816;2024-02-14T10:31:45;9.18;;;3.05;;
71655;SDS011;59497;48.798;8.816;2024-02-14T10:34:10;5.07;;;1.93;;
71655;SDS011;59497;48.798;8.816;2024-02-14T10:36:36;2.27;;;1.50;;
71655;SDS011;59497;48.798;8.816;2024-02-14T10:39:05;1.60;;;1.42;;
71655;SDS011;59497;48.798;8.816;2024-02-14T10:41:30;2.10;;;1.13;;
71655;SDS011;59497;48.798;8.816;2024-02-14T10:44:03;1.10;;;1.00;;
71655;SDS011;59497;48.798;8.816;2024-02-14T10:46:31;1.58;;;1.00;;
71655;SDS011;59497;48.798;8.816;2024-02-14T10:49:02;0.93;;;0.80;;
71655;SDS011;59497;48.798;8.816;2024-02-14T10:51:28;1.38;;;0.90;;
71655;SDS011;59497;48.798;8.816;2024-02-14T10:53:55;1.65;;;0.90;;
71655;SDS011;59497;48.798;8.816;2024-02-14T10:56:21;1.33;;;1.23;;
71655;SDS011;59497;48.798;8.816;2024-02-14T10:58:48;1.30;;;0.70;;
71655;SDS011;59497;48.798;8.816;2024-02-14T11:01:14;1.92;;;1.20;;
71655;SDS011;59497;48.798;8.816;2024-02-14T11:03:41;1.52;;;1.13;;
71655;SDS011;59497;48.798;8.816;2024-02-14T11:06:06;1.97;;;1.10;;
71655;SDS011;59497;48.798;8.816;2024-02-14T11:08:31;2.20;;;0.80;;
71655;SDS011;59497;48.798;8.816;2024-02-14T11:10:58;3.47;;;3.17;;
71655;SDS011;59497;48.798;8.816;2024-02-14T11:13:27;2.40;;;2.20;;
71655;SDS011;59497;48.798;8.816;2024-02-14T11:15:53;6.18;;;4.80;;
71655;SDS011;59497;48.798;8.816;2024-02-14T11:18:26;6.85;;;5.00;;
71655;SDS011;59497;48.798;8.816;2024-02-14T11:20:52;3.42;;;2.47;;
71655;SDS011;59497;48.798;8.816;2024-02-14T11:23:21;5.70;;;3.90;;
71655;SDS011;59497;48.798;8.816;2024-02-14T11:25:46;9.07;;;5.78;;
71655;SDS011;59497;48.798;8.816;2024-02-14T11:28:13;6.00;;;3.73;;
71655;SDS011;59497;48.798;8.816;2024-02-14T11:30:39;4.03;;;2.50;;
71655;SDS011;59497;48.798;8.816;2024-02-14T11:33:18;1.40;;;1.30;;
71655;SDS011;59497;48.798;8.816;2024-02-14T11:35:45;4.10;;;2.58;;
71655;SDS011;59497;48.798;8.816;2024-02-14T11:38:10;1.63;;;0.60;;
71655;SDS011;59497;48.798;8.816;2024-02-14T11:40:36;2.20;;;0.70;;
71655;SDS011;59497;48.798;8.816;2024-02-14T11:43:03;0.93;;;0.50;;
71655;SDS011;59497;48.798;8.816;2024-02-14T11:45:28;0.73;;;0.70;;
71655;SDS011;59497;48.798;8.816;2024-02-14T11:47:54;1.93;;;0.70;;
71655;SDS011;59497;48.798;8.816;2024-02-14T11:50:20;0.57;;;0.57;;
71655;SDS011;59497;48.798;8.816;2024-02-14T11:52:45;0.70;;;0.70;;
71655;SDS011;59497;48.798;8.816;2024-02-14T11:55:11;1.17;;;0.70;;
71655;SDS011;59497;48.798;8.816;2024-02-14T11:57:39;1.02;;;0.50;;
71655;SDS011;59497;48.798;8.816;2024-02-14T12:00:04;0.97;;;0.30;;
71655;SDS011;59497;48.798;8.816;2024-02-14T12:02:30;0.90;;;0.40;;
71655;SDS011;59497;48.798;8.816;2024-02-14T12:04:55;0.90;;;0.50;;
71655;SDS011;59497;48.798;8.816;2024-02-14T12:07:21;0.60;;;0.60;;
71655;SDS011;59497;48.798;8.816;2024-02-14T12:09:47;0.63;;;0.63;;
71655;SDS011;59497;48.798;8.816;2024-02-14T12:12:13;1.85;;;0.63;;
71655;SDS011;59497;48.798;8.816;2024-02-14T12:14:39;0.80;;;0.80;;
71655;SDS011;59497;48.798;8.816;2024-02-14T12:17:05;0.40;;;0.40;;
71655;SDS011;59497;48.798;8.816;2024-02-14T12:19:32;0.40;;;0.40;;
71655;SDS011;59497;48.798;8.816;2024-02-14T12:21:58;1.55;;;0.57;;
71655;SDS011;59497;48.798;8.816;2024-02-14T12:24:26;0.35;;;0.35;;
71655;SDS011;59497;48.798;8.816;2024-02-14T12:26:52;0.40;;;0.40;;
71655;SDS011;59497;48.798;8.816;2024-02-14T12:29:18;0.60;;;0.60;;
71655;SDS011;59497;48.798;8.816;2024-02-14T12:31:43;0.30;;;0.30;;
71655;SDS011;59497;48.798;8.816;2024-02-14T12:34:10;0.40;;;0.40;;
71655;SDS011;59497;48.798;8.816;2024-02-14T12:36:35;0.80;;;0.80;;
71655;SDS011;59497;48.798;8.816;2024-02-14T12:39:00;0.60;;;0.60;;
71655;SDS011;59497;48.798;8.816;2024-02-14T12:41:29;0.70;;;0.70;;
71655;SDS011;59497;48.798;8.816;2024-02-14T12:43:55;0.47;;;0.40;;
71655;SDS011;59497;48.798;8.816;2024-02-14T12:46:20;0.60;;;0.52;;
71655;SDS011;59497;48.798;8.816;2024-02-14T12:48:45;0.60;;;0.60;;
71655;SDS011;59497;48.798;8.816;2024-02-14T12:51:10;0.50;;;0.50;;
71655;SDS011;59497;48.798;8.816;2024-02-14T12:53:36;0.40;;;0.40;;
71655;SDS011;59497;48.798;8.816;2024-02-14T12:56:01;0.50;;;0.50;;
71655;SDS011;59497;48.798;8.816;2024-02-14T12:58:26;0.50;;;0.40;;
71655;SDS011;59497;48.798;8.816;2024-02-14T13:00:52;0.30;;;0.30;;
71655;SDS011;59497;48.798;8.816;2024-02-14T13:03:18;0.40;;;0.40;;
71655;SDS011;59497;48.798;8.816;2024-02-14T13:05:44;0.35;;;0.35;;
71655;SDS011;59497;48.798;8.816;2024-02-14T13:08:09;0.43;;;0.40;;
71655;SDS011;59497;48.798;8.816;2024-02-14T13:10:36;0.45;;;0.45;;
71655;SDS011;59497;48.798;8.816;2024-02-14T13:13:01;0.37;;;0.37;;
71655;SDS011;59497;48.798;8.816;2024-02-14T13:15:26;0.23;;;0.23;;
71655;SDS011;59497;48.798;8.816;2024-02-14T13:17:52;0.43;;;0.43;;
71655;SDS011;59497;48.798;8.816;2024-02-14T13:20:17;0.30;;;0.30;;
71655;SDS011;59497;48.798;8.816;2024-02-14T13:22:42;0.43;;;0.43;;
71655;SDS011;59497;48.798;8.816;2024-02-14T13:25:08;0.40;;;0.40;;
71655;SDS011;59497;48.798;8.816;2024-02-14T13:27:33;0.37;;;0.37;;
71655;SDS011;59497;48.798;8.816;2024-02-14T13:29:59;0.35;;;0.35;;
71655;SDS011;59497;48.798;8.816;2024-02-14T13:32:24;0.40;;;0.40;;
71655;SDS011;59497;48.798;8.816;2024-02-14T13:34:49;0.50;;;0.33;;
71655;SDS011;59497;48.798;8.816;2024-02-14T13:37:15;0.37;;;0.37;;
71655;SDS011;59497;48.798;8.816;2024-02-14T13:39:40;0.30;;;0.30;;
71655;SDS011;59497;48.798;8.816;2024-02-14T13:42:06;0.53;;;0.30;;
71655;SDS011;59497;48.798;8.816;2024-02-14T13:44:32;0.50;;;0.50;;
71655;SDS011;59497;48.798;8.816;2024-02-14T13:46:57;0.53;;;0.53;;
71655;SDS011;59497;48.798;8.816;2024-02-14T13:49:23;0.32;;;0.32;;
71655;SDS011;59497;48.798;8.816;2024-02-14T13:51:49;0.87;;;0.60;;
71655;SDS011;59497;48.798;8.816;2024-02-14T13:54:16;1.13;;;0.30;;
71655;SDS011;59497;48.798;8.816;2024-02-14T13:56:41;0.60;;;0.50;;
71655;SDS011;59497;48.798;8.816;2024-02-14T13:59:06;0.50;;;0.40;;
71655;SDS011;59497;48.798;8.816;2024-02-14T14:01:32;0.57;;;0.50;;
71655;SDS011;59497;48.798;8.816;2024-02-14T14:03:57;0.53;;;0.40;;
71655;SDS011;59497;48.798;8.816;2024-02-14T14:06:23;0.40;;;0.40;;
71655;SDS011;59497;48.798;8.816;2024-02-14T14:08:49;0.63;;;0.63;;
71655;SDS011;59497;48.798;8.816;2024-02-14T14:11:14;0.40;;;0.40;;
71655;SDS011;59497;48.798;8.816;2024-02-14T14:13:39;1.80;;;0.83;;
71655;SDS011;59497;48.798;8.816;2024-02-14T14:16:04;4.37;;;2.67;;
71655;SDS011;59497;48.798;8.816;2024-02-14T14:18:30;2.47;;;1.90;;
71655;SDS011;59497;48.798;8.816;2024-02-14T14:20:55;0.83;;;0.77;;
71655;SDS011;59497;48.798;8.816;2024-02-14T14:23:20;0.70;;;0.60;;
71655;SDS011;59497;48.798;8.816;2024-02-14T14:25:46;1.47;;;0.60;;
71655;SDS011;59497;48.798;8.816;2024-02-14T14:28:11;0.40;;;0.40;;
71655;SDS011;59497;48.798;8.816;2024-02-14T14:30:36;0.50;;;0.50;;
71655;SDS011;59497;48.798;8.816;2024-02-14T14:33:02;0.40;;;0.40;;
71655;SDS011;59497;48.798;8.816;2024-02-14T14:35:28;0.40;;;0.40;;
71655;SDS011;59497;48.798;8.816;2024-02-14T14:37:54;0.95;;;0.95;;
71655;SDS011;59497;48.798;8.816;2024-02-14T14:40:19;1.53;;;0.70;;